createdAt,value
2023-04-07T00:04:15.733Z,77.20
2023-04-07T00:09:24.983Z,77.20
2023-04-07T00:14:33.203Z,77.30
2023-04-07T00:19:43.090Z,77.40
2023-04-07T00:24:52.763Z,77.60
2023-04-07T00:30:01.495Z,77.80
2023-04-07T00:35:13.223Z,77.90
2023-04-07T00:40:14.408Z,78.30
2023-04-07T00:45:14.960Z,78.60
2023-04-07T00:50:07.293Z,78.70
2023-04-07T00:55:18.068Z,78.80
2023-04-07T01:00:18.706Z,79.10
2023-04-07T01:05:18.477Z,79.30
2023-04-07T01:10:26.965Z,79.40
2023-04-07T01:15:35.192Z,79.50
2023-04-07T01:20:43.632Z,79.70
2023-04-07T01:25:52.105Z,80.10
2023-04-07T01:31:00.921Z,80.30
2023-04-07T01:36:10.784Z,80.60
2023-04-07T01:41:21.079Z,80.80
2023-04-07T01:46:19.203Z,81.10
2023-04-07T01:51:27.861Z,81.40
2023-04-07T01:56:37.183Z,81.60
2023-04-07T02:01:49.252Z,82.10
2023-04-07T02:06:48.171Z,82.30
2023-04-07T02:12:00.559Z,82.60
2023-04-07T02:16:59.584Z,82.60
2023-04-07T02:22:09.312Z,82.70
2023-04-07T02:27:21.607Z,82.80
2023-04-07T02:32:20.257Z,82.50
2023-04-07T02:37:29.838Z,82.30
2023-04-07T02:42:39.779Z,82.30
2023-04-07T02:47:48.345Z,82.00
2023-04-07T02:52:58.441Z,81.70
2023-04-07T02:57:57.619Z,81.60
2023-04-07T03:03:07.205Z,81.70
2023-04-07T03:08:16.546Z,81.40
2023-04-07T03:13:26.199Z,81.60
2023-04-07T03:18:37.156Z,81.50
2023-04-07T03:23:37.405Z,81.50
2023-04-07T03:28:35.600Z,81.40
2023-04-07T03:33:44.128Z,81.60
2023-04-07T03:38:52.617Z,81.60
2023-04-07T03:44:02.177Z,81.70
2023-04-07T03:49:11.306Z,81.70
2023-04-07T03:54:21.015Z,81.80
2023-04-07T03:59:30.734Z,82.40
2023-04-07T04:04:39.504Z,82.10
2023-04-07T04:09:48.632Z,82.40
2023-04-07T04:14:57.516Z,82.90
2023-04-07T04:20:07.488Z,83.10
2023-04-07T04:25:17.660Z,83.50
2023-04-07T04:30:16.970Z,83.20
2023-04-07T04:35:25.536Z,82.90
2023-04-07T04:40:33.830Z,83.10
2023-04-07T04:45:42.910Z,82.90
2023-04-07T04:50:52.080Z,82.40
2023-04-07T04:56:02.496Z,81.80
2023-04-07T05:01:01.926Z,81.90
2023-04-07T05:06:11.636Z,82.20
2023-04-07T05:11:21.385Z,82.40
2023-04-07T05:16:30.260Z,81.70
2023-04-07T05:21:39.833Z,82.10
2023-04-07T05:26:48.706Z,81.40
2023-04-07T05:31:59.852Z,80.70
2023-04-07T05:36:58.338Z,81.10
2023-04-07T05:42:06.841Z,80.60
2023-04-07T05:47:15.241Z,81.50
2023-04-07T05:52:24.759Z,81.80
2023-04-07T05:57:33.684Z,81.10
2023-04-07T06:02:43.647Z,81.10
2023-04-07T06:07:52.435Z,79.90
2023-04-07T06:13:01.680Z,80.20
2023-04-07T06:18:11.669Z,80.10
2023-04-07T06:23:11.480Z,79.60
2023-04-07T06:28:20.440Z,77.70
2023-04-07T06:33:29.216Z,78.70
2023-04-07T06:38:38.052Z,78.90
2023-04-07T06:43:47.795Z,79.20
2023-04-07T06:48:55.896Z,78.50
2023-04-07T06:54:04.271Z,76.30
2023-04-07T06:59:14.595Z,75.60
2023-04-07T07:04:15.101Z,75.00
2023-04-07T07:09:15.241Z,73.30
2023-04-07T07:14:14.092Z,73.30
2023-04-07T07:19:24.400Z,73.60
2023-04-07T07:24:23.770Z,72.80
2023-04-07T07:29:34.491Z,72.80
2023-04-07T07:34:34.140Z,72.80
2023-04-07T07:39:44.503Z,73.40
2023-04-07T07:44:44.063Z,71.80
2023-04-07T07:49:52.514Z,71.20
2023-04-07T07:55:00.785Z,72.80
2023-04-07T08:00:11.013Z,72.40
2023-04-07T08:05:09.363Z,71.70
2023-04-07T08:10:18.032Z,70.60
2023-04-07T08:15:26.547Z,71.90
2023-04-07T08:20:36.574Z,70.20
2023-04-07T08:25:34.748Z,68.30
2023-04-07T08:30:44.396Z,68.00
2023-04-07T08:35:54.341Z,69.20
2023-04-07T08:41:04.230Z,67.90
2023-04-07T08:46:12.708Z,68.30
2023-04-07T08:51:21.615Z,66.50
2023-04-07T08:56:32.017Z,66.80
2023-04-07T09:01:32.032Z,65.30
2023-04-07T09:06:40.017Z,65.80
2023-04-07T09:11:49.788Z,63.20
2023-04-07T09:17:00.016Z,62.50
2023-04-07T09:21:59.923Z,62.60
2023-04-07T09:27:09.877Z,61.70
2023-04-07T09:32:18.469Z,62.00
2023-04-07T09:37:26.896Z,62.00
2023-04-07T09:42:38.058Z,63.80
2023-04-07T09:47:36.044Z,62.30
2023-04-07T09:52:46.546Z,64.20
2023-04-07T09:57:45.780Z,64.30
2023-04-07T10:02:55.536Z,64.90
2023-04-07T10:08:03.893Z,63.90
2023-04-07T10:13:12.950Z,64.00
2023-04-07T10:18:22.550Z,66.50
2023-04-07T10:23:31.492Z,65.10
2023-04-07T10:28:41.147Z,65.00
2023-04-07T10:33:50.689Z,69.40
2023-04-07T10:39:00.391Z,73.90
2023-04-07T10:43:59.016Z,76.20
2023-04-07T10:49:07.999Z,78.00
2023-04-07T10:54:18.178Z,79.80
2023-04-07T10:59:17.946Z,80.10
2023-04-07T11:04:29.722Z,79.80
2023-04-07T11:09:28.824Z,80.00
2023-04-07T11:14:37.601Z,80.80
2023-04-07T11:19:45.929Z,79.70
2023-04-07T11:24:55.494Z,78.40
2023-04-07T11:30:05.303Z,79.70
2023-04-07T11:35:13.959Z,79.70
2023-04-07T11:40:22.038Z,81.00
2023-04-07T11:45:30.718Z,81.10
2023-04-07T11:50:39.318Z,82.20
2023-04-07T11:55:47.745Z,82.70
2023-04-07T12:00:59.396Z,82.90
2023-04-07T12:05:58.003Z,84.00
2023-04-07T12:11:06.522Z,84.30
2023-04-07T12:16:17.678Z,85.80
2023-04-07T12:21:18.121Z,87.00
2023-04-07T12:26:18.212Z,87.30
2023-04-07T12:31:18.491Z,88.90
2023-04-07T12:36:19.790Z,90.40
2023-04-07T12:41:12.718Z,89.80
2023-04-07T12:46:22.341Z,90.00
2023-04-07T12:51:31.548Z,87.50
2023-04-07T12:56:42.057Z,86.20
2023-04-07T13:01:43.860Z,84.80
2023-04-07T13:06:43.460Z,83.90
2023-04-07T13:11:52.968Z,84.60
2023-04-07T13:17:02.797Z,85.10
2023-04-07T13:22:17.818Z,85.00
2023-04-07T13:27:22.411Z,85.60
2023-04-07T13:32:20.976Z,85.90
2023-04-07T13:37:30.517Z,85.50
2023-04-07T13:42:40.944Z,84.50
2023-04-07T13:47:40.771Z,85.10
2023-04-07T13:52:53.712Z,85.10
2023-04-07T13:57:52.652Z,86.60
2023-04-07T14:03:02.824Z,86.30
2023-04-07T14:08:11.009Z,87.70
2023-04-07T14:13:19.705Z,89.40
2023-04-07T14:18:28.359Z,90.50
2023-04-07T14:23:39.059Z,90.80
2023-04-07T14:28:39.009Z,91.30
2023-04-07T14:33:48.112Z,91.70
2023-04-07T14:38:57.671Z,91.90
2023-04-07T14:44:05.896Z,92.40
2023-04-07T14:49:16.467Z,92.70
2023-04-07T14:54:17.882Z,92.90
2023-04-07T14:59:17.049Z,93.10
2023-04-07T15:04:27.458Z,93.50
2023-04-07T15:09:27.096Z,93.60
2023-04-07T15:14:37.038Z,93.60
2023-04-07T15:19:46.011Z,93.80
2023-04-07T15:24:54.478Z,93.80
2023-04-07T15:30:04.844Z,94.20
2023-04-07T15:35:03.470Z,94.50
2023-04-07T15:40:13.568Z,94.30
2023-04-07T15:45:13.004Z,94.40
2023-04-07T15:50:23.545Z,94.40
2023-04-07T15:55:24.005Z,94.40
2023-04-07T16:00:24.379Z,94.60
2023-04-07T16:05:25.824Z,94.50
2023-04-07T16:10:24.838Z,94.50
2023-04-07T16:15:40.488Z,94.40
2023-04-07T16:20:34.117Z,94.40
2023-04-07T16:25:44.049Z,94.70
2023-04-07T16:30:54.615Z,94.80
2023-04-07T16:35:53.347Z,94.90
2023-04-07T16:41:04.393Z,95.10
2023-04-07T16:46:13.229Z,95.40
2023-04-07T16:51:13.368Z,95.50
2023-04-07T16:56:11.897Z,95.50
2023-04-07T17:01:26.366Z,95.60
2023-04-07T17:06:25.974Z,95.30
2023-04-07T17:11:35.724Z,95.30
2023-04-07T17:16:44.317Z,95.40
2023-04-07T17:21:54.166Z,95.30
2023-04-07T17:27:02.806Z,95.80
2023-04-07T17:32:12.626Z,95.80
2023-04-07T17:37:21.962Z,95.60
2023-04-07T17:42:32.260Z,95.50
2023-04-07T17:47:30.722Z,95.80
2023-04-07T17:52:42.924Z,95.60
2023-04-07T17:57:42.696Z,95.60
2023-04-07T18:02:53.684Z,95.60
2023-04-07T18:07:52.419Z,96.00
2023-04-07T18:13:02.905Z,95.70
2023-04-07T18:18:02.673Z,96.10
2023-04-07T18:23:13.299Z,96.80
2023-04-07T18:28:13.278Z,97.00
2023-04-07T18:33:23.809Z,97.30
2023-04-07T18:38:23.495Z,97.30
2023-04-07T18:43:32.432Z,97.30
2023-04-07T18:48:42.439Z,97.30
2023-04-07T18:53:46.341Z,97.00
2023-04-07T18:58:55.670Z,96.90
2023-04-07T19:04:06.193Z,96.70
2023-04-07T19:09:07.717Z,96.80
2023-04-07T19:14:10.253Z,96.70
2023-04-07T19:19:08.483Z,97.30
2023-04-07T19:24:18.652Z,97.70
2023-04-07T19:29:17.529Z,98.20
2023-04-07T19:34:27.826Z,98.70
2023-04-07T19:39:28.613Z,98.50
2023-04-07T19:44:27.822Z,98.50
2023-04-07T19:49:37.672Z,98.40
2023-04-07T19:54:47.764Z,98.10
2023-04-07T19:59:39.933Z,98.00
2023-04-07T20:04:49.691Z,98.10
2023-04-07T20:09:58.902Z,98.00
2023-04-07T20:15:09.497Z,97.90
2023-04-07T20:20:08.965Z,98.00
2023-04-07T20:25:20.185Z,97.80
2023-04-07T20:30:20.031Z,97.50
2023-04-07T20:35:29.028Z,97.60
2023-04-07T20:40:40.748Z,97.70
2023-04-07T20:45:40.638Z,97.20
2023-04-07T20:50:50.221Z,97.00
2023-04-07T20:56:00.696Z,96.70
2023-04-07T21:00:57.633Z,96.50
2023-04-07T21:06:08.960Z,96.60
2023-04-07T21:11:07.113Z,96.60
2023-04-07T21:16:17.661Z,96.50
2023-04-07T21:21:15.705Z,96.60
2023-04-07T21:26:27.824Z,96.60
2023-04-07T21:31:25.002Z,96.40
2023-04-07T21:36:34.645Z,96.40
2023-04-07T21:41:43.902Z,96.20
2023-04-07T21:46:54.460Z,96.30
2023-04-07T21:51:55.459Z,96.10
2023-04-07T21:56:56.130Z,96.10
2023-04-07T22:01:54.666Z,96.10
2023-04-07T22:07:03.441Z,96.10
2023-04-07T22:12:13.254Z,96.40
2023-04-07T22:17:21.935Z,96.30
2023-04-07T22:22:30.622Z,96.20
2023-04-07T22:27:40.985Z,96.30
2023-04-07T22:32:40.748Z,96.30
2023-04-07T22:37:49.429Z,96.60
2023-04-07T22:42:58.942Z,96.70
2023-04-07T22:48:07.847Z,96.60
2023-04-07T22:53:16.328Z,96.60
2023-04-07T22:58:26.172Z,96.40
2023-04-07T23:03:35.818Z,96.50
2023-04-07T23:08:45.041Z,96.30
2023-04-07T23:13:54.638Z,96.30
2023-04-07T23:19:04.344Z,96.30
2023-04-07T23:24:13.610Z,96.30
2023-04-07T23:29:23.677Z,96.30
2023-04-07T23:34:23.790Z,96.30
2023-04-07T23:39:24.291Z,96.40
2023-04-07T23:44:22.946Z,96.50
2023-04-07T23:49:31.595Z,96.50
2023-04-07T23:54:41.865Z,96.40
2023-04-07T23:59:41.186Z,96.30
